createdAt,value
2023-02-05T10:07:28.023Z,100.00
2023-02-05T10:10:38.355Z,100.00
2023-02-05T10:13:56.784Z,100.00
2023-02-05T10:25:59.380Z,100.00
2023-02-05T10:54:44.797Z,91.56
2023-02-05T10:57:56.152Z,90.25
2023-02-05T11:01:20.214Z,88.88
2023-02-05T11:04:35.429Z,87.62
2023-02-05T11:07:50.018Z,86.94
2023-02-05T11:11:06.704Z,84.22
2023-02-05T11:14:27.976Z,81.71
2023-02-05T11:17:36.590Z,81.65
2023-02-05T11:20:43.691Z,80.86
2023-02-05T11:24:25.956Z,81.88
2023-02-05T11:27:37.854Z,80.72
2023-02-05T11:31:06.008Z,80.07
2023-02-05T11:35:01.867Z,78.87
2023-02-05T11:39:04.837Z,79.36
2023-02-05T11:42:16.644Z,79.93
2023-02-05T11:45:52.702Z,81.58
2023-02-05T11:49:00.606Z,81.45
2023-02-05T11:52:25.407Z,79.93
2023-02-05T11:55:32.101Z,79.52
2023-02-05T11:58:40.838Z,79.24
2023-02-05T12:02:25.396Z,79.75
2023-02-05T12:05:43.830Z,80.63
2023-02-05T12:08:58.200Z,80.91
2023-02-05T12:12:42.146Z,80.75
2023-02-05T12:16:20.813Z,79.60
2023-02-05T12:19:42.009Z,79.64
2023-02-05T12:23:27.368Z,80.77
2023-02-05T12:26:43.279Z,81.48
2023-02-05T12:30:16.782Z,81.56
2023-02-05T12:33:40.497Z,82.41
2023-02-05T12:41:02.418Z,81.91
2023-02-05T12:44:50.834Z,82.14
2023-02-05T12:49:13.837Z,82.32
2023-02-05T13:00:48.485Z,82.61
2023-02-05T13:05:01.765Z,82.29
2023-02-05T13:08:48.432Z,80.06
2023-02-05T13:12:21.041Z,80.12
2023-02-05T13:17:10.557Z,80.37
2023-02-05T13:20:05.634Z,75.72
2023-02-05T13:23:43.749Z,74.44
2023-02-05T13:27:09.015Z,75.59
2023-02-05T13:30:25.704Z,75.50
2023-02-05T14:00:51.110Z,71.52
2023-02-05T14:25:25.738Z,73.66
2023-02-05T14:29:43.999Z,77.26
2023-02-05T14:37:49.396Z,80.58
2023-02-05T14:41:13.514Z,82.04
2023-02-05T14:44:36.256Z,81.93
2023-02-05T14:47:54.177Z,83.19
2023-02-05T14:51:23.587Z,83.64
2023-02-05T14:54:38.571Z,84.12
2023-02-05T15:02:31.890Z,85.27
2023-02-05T15:06:06.046Z,86.60
2023-02-05T15:09:32.096Z,87.20
2023-02-05T15:13:09.498Z,88.08
2023-02-05T15:16:39.767Z,89.43
2023-02-05T15:19:58.787Z,89.91
2023-02-05T15:23:22.246Z,90.67
2023-02-05T15:26:43.647Z,91.25
2023-02-05T15:29:57.429Z,90.99
